Baker City Municipal Airport
KBKE : now visible

Airfield :











YOU CAN JOIN US ON...

 
LOGIN :

Register | Disclaimer

   EN    FR    IT 

 









Legend :    VFR   Marginal VFR   IFR   Intensive IFR   Very Intensive IFR
Visi :
Ceiling :
>= 8 km
>= 3000ft
5 to 8 km
1000 to 3000 ft
1500m to 5 km
500 to 1000 ft
800 to 1500m
200 to 500 ft
< 800m
< 200 ft
Symbols :   Thunderstorms  Fog  Heavy snow  Heavy precipitations  Wind > 20 kt






- Airport Elevation : 3373 ft


KBKE - Baker City Municipal

CURRENT METAR :
  • 220253Z AUTO 00000KT 5SM HZ SCT013 OVC080 01/M02 A2999 RMK AO2 SLP178 60000 T00111017 55000

EXPIRED METARs :
  • 220200Z AUTO 05003KT 8SM OVC012 02/M01 A2999 RMK AO2 T00171011
  • 220137Z AUTO 07004KT 5SM HZ SCT009 BKN015 OVC060 01/M02 A2999 RMK AO2 SNE0056 P0000 T00111017
  • 220103Z AUTO 06003KT 5SM HZ OVC043 02/M01 A3000 RMK AO2 SNE0056 P0000 T00171011
  • 220053Z AUTO 07003KT 2SM -SN FEW035 OVC043 02/M01 A2999 RMK AO2 SNB2354 SLP176 P0000 T00171011

TAF KBKE
Valid from the 22 at 03:00 until the 23 at 00:00 UTC


220301Z 2203/2224 VRB03KT 5SM BR VCSH BKN015 OVC040
FM220500 VRB03KT 1/2SM FZFG OVC002
FM221800 VRB03KT 3SM BR BKN010
KZLC FIR / North America



MET'MAP, your aeronautical weather chart ! - Copyright ORBIFLY December 2007 - Disclaimer

ORBIFLY MET'MAP TEAM :

Programming & Development : Alexandra Zaïnal
Concept & original design : Baudouin d'Aumeries
Assistance for programming : Marc-Olivier Méhu
Technical & hardware support : Manuel Goepfert

Contact : metmap@orbifly.com




SOURCES & CREDITS :

   NOAA       Earth
Advisory